Airfield :
LOGIN :

Register | Disclaimer

   EN    FR    IT 

 










Legend :    VFR   Marginal VFR   IFR   Intensive IFR   Very Intensive IFR
Visi :
Ceiling :
>= 8 km
>= 3000ft
5 to 8 km
1000 to 3000 ft
1500m to 5 km
500 to 1000 ft
800 to 1500m
200 to 500 ft
< 800m
< 200 ft
Symbols :   Thunderstorms  Fog  Heavy snow  Heavy precipitations  Wind > 20 kt
SIGMETs :     Misc.  Thunderstorms  Icing  Turbulence  Mountain Waves  Volcanic Ashes







- Airport Elevation : 26 ft
- IATA code : GLA
- Download approach charts


EGPF - Glasgow

CURRENT METAR :
  • 181720Z AUTO 21005KT 170V250 9999 SCT020 BKN033 15/13 Q0997

EXPIRED METARs :
  • 181650Z AUTO 21011KT 160V230 9999 SCT022 SCT036 BKN046 16/13 Q0997
  • 181620Z AUTO 22015KT 9999 SCT027 BKN032 16/12 Q0997
  • 181550Z AUTO 22021KT 9999 BKN028 16/12 Q0997
  • 181520Z AUTO 22018KT 9999 FEW022 BKN030 BKN040 17/13 Q0997
  • 181450Z AUTO 22017G28KT 9999 OVC023 16/13 Q0997

TAF TAF EGPF
Valid from the 18 at 18:00 until the 19 at 18:00 UTC


181657Z 1818/1918 21012KT 9999 SCT020
TEMPO 1818/1904 22020G30KT
PROB40
TEMPO 1818/1901 4000 +SHRA
BECMG 1903/1906 15007KT
TEMPO 1905/1911 2000 +RA BKN014
BECMG 1906/1909 22025G35KT
BECMG 1909/1912 22035G60KT
BECMG 1912/1915 22028G40KT
PROB40
TEMPO 1913/1918 6000 SHRA
ATIS : +44 141 887 7449
No reported NOTAMs for that airfield.
3 SIGMETs reported for the Scottish FIR (EGPX) :
 
Severe mountain waves
EGPX SIGMET 07 VALID 181800/182200 EGRR
EGPX SCOTTISH FIR SEV MTW FCST WI N5500 W00100 - N5500 W00311 - N5651 W00447 - N5832 W00352 - N5903 W00043 - N5500 E00112 - N5500 W00100 FL040/240 STNR WKN=
Severe turbulence
EGPX SIGMET 06 VALID 181400/181800 EGRR
EGPX SCOTTISH FIR SEV TURB FCST WI N5719 E00429 - N5701 E00458 - N5500 E00458 - N5500 W00232 - N5606 W00126 - N5735 E00402 - N5719 E00429 SFC/FL060 STNR NC=
Severe mountain waves
EGPX SIGMET 05 VALID 181400/181800 EGRR
EGPX SCOTTISH FIR SEV MTW FCST WI N5500 W00100 - N5500 W00420 - N5718 W00347 - N5749 W00044 - N5500 E00203 - N5500 W00100 FL040/240 MOV N 20KT NC=



MET'MAP, your aeronautical weather chart ! - Copyright ORBIFLY December 2007 - Disclaimer

ORBIFLY MET'MAP TEAM :

Programming & Development : Alexandra Zaïnal
Concept & Development : Baudouin d'Aumeries
Co-Development & Prog : Marc-Olivier Méhu
Technical & hardware support : Manuel Goepfert

Contact : metmap@orbifly.com




SOURCES & CREDITS :

   NOAA